createdAt,value
2019-04-27T00:01:05.164Z,13.80
2019-04-27T00:03:44.746Z,13.17
2019-04-27T00:06:15.585Z,11.90
2019-04-27T00:08:47.817Z,12.10
2019-04-27T00:11:20.616Z,13.63
2019-04-27T00:13:50.189Z,13.70
2019-04-27T00:16:50.531Z,12.03
2019-04-27T00:19:41.073Z,11.60
2019-04-27T00:22:15.002Z,12.80
2019-04-27T00:24:44.728Z,12.23
2019-04-27T00:27:14.980Z,12.07
2019-04-27T00:29:44.832Z,11.63
2019-04-27T00:32:14.930Z,13.33
2019-04-27T00:34:44.544Z,12.13
2019-04-27T00:37:36.569Z,10.50
2019-04-27T00:40:14.666Z,14.57
2019-04-27T00:42:44.340Z,13.63
2019-04-27T00:45:15.120Z,14.90
2019-04-27T00:47:56.469Z,15.50
2019-04-27T00:50:16.485Z,13.13
2019-04-27T00:52:46.054Z,12.47
2019-04-27T00:55:15.601Z,12.30
2019-04-27T00:57:54.692Z,13.57
2019-04-27T01:00:53.963Z,15.00
2019-04-27T01:03:37.183Z,13.83
2019-04-27T01:06:07.166Z,10.37
2019-04-27T01:08:36.703Z,15.23
2019-04-27T01:11:06.260Z,13.67
2019-04-27T01:13:36.490Z,13.20
2019-04-27T01:16:08.518Z,11.40
2019-04-27T01:18:38.705Z,12.23
2019-04-27T01:21:09.256Z,11.53
2019-04-27T01:23:41.313Z,11.87
2019-04-27T01:26:45.364Z,13.03
2019-04-27T01:29:16.998Z,11.30
2019-04-27T01:31:48.562Z,13.27
2019-04-27T01:34:19.195Z,15.50
2019-04-27T01:36:49.352Z,13.70
2019-04-27T01:39:19.272Z,12.00
2019-04-27T01:41:49.265Z,13.50
2019-04-27T01:44:19.396Z,12.60
2019-04-27T01:46:49.609Z,12.63
2019-04-27T01:49:19.453Z,13.63
2019-04-27T01:51:49.363Z,13.47
2019-04-27T01:54:20.881Z,15.67
2019-04-27T01:56:50.449Z,13.87
2019-04-27T01:59:20.442Z,12.43
2019-04-27T02:02:19.067Z,11.63
2019-04-27T02:05:11.073Z,13.47
2019-04-27T02:07:42.217Z,12.10
2019-04-27T02:10:13.692Z,11.80
2019-04-27T02:12:44.190Z,14.30
2019-04-27T02:15:14.305Z,12.77
2019-04-27T02:18:02.093Z,12.83
2019-04-27T02:20:32.720Z,15.37
2019-04-27T02:23:02.410Z,11.83
2019-04-27T02:25:32.342Z,13.27
2019-04-27T02:28:09.300Z,12.57
2019-04-27T02:30:56.957Z,12.57
2019-04-27T02:33:31.303Z,12.83
2019-04-27T02:36:00.849Z,12.10
2019-04-27T02:38:30.777Z,12.43
2019-04-27T02:41:03.211Z,11.47
2019-04-27T02:43:40.139Z,10.93
2019-04-27T02:46:23.055Z,11.03
2019-04-27T02:49:00.227Z,13.00
2019-04-27T02:51:33.838Z,12.43
2019-04-27T02:54:03.742Z,13.33
2019-04-27T02:56:33.360Z,12.17
2019-04-27T02:59:03.272Z,13.00
2019-04-27T03:01:36.645Z,13.03
2019-04-27T03:04:06.269Z,11.27
2019-04-27T03:06:35.900Z,10.77
2019-04-27T03:09:10.218Z,12.37
2019-04-27T03:11:39.572Z,11.67
2019-04-27T03:14:40.642Z,13.10
2019-04-27T03:17:23.153Z,10.77
2019-04-27T03:20:14.643Z,15.53
2019-04-27T03:22:49.742Z,12.43
2019-04-27T03:25:25.872Z,11.77
2019-04-27T03:28:02.074Z,10.93
2019-04-27T03:30:34.778Z,11.17
2019-04-27T03:33:02.852Z,12.83
2019-04-27T03:35:36.479Z,10.90
2019-04-27T03:38:03.955Z,12.67
2019-04-27T03:40:46.102Z,11.33
2019-04-27T03:43:21.496Z,10.13
2019-04-27T03:45:52.393Z,10.80
2019-04-27T03:48:22.950Z,12.17
2019-04-27T03:51:10.371Z,12.67
2019-04-27T03:53:51.542Z,11.73
2019-04-27T03:56:35.671Z,10.83
2019-04-27T03:59:24.487Z,11.47
2019-04-27T04:01:54.177Z,13.03
2019-04-27T04:04:23.805Z,11.97
2019-04-27T04:06:53.509Z,11.83
2019-04-27T04:09:40.183Z,10.73
2019-04-27T04:12:44.452Z,10.73
2019-04-27T04:15:22.898Z,11.73
2019-04-27T04:17:52.445Z,10.83
2019-04-27T04:20:22.317Z,11.40
2019-04-27T04:22:51.894Z,10.87
2019-04-27T04:25:21.837Z,11.67
2019-04-27T04:27:51.382Z,10.23
2019-04-27T04:30:21.297Z,11.50
2019-04-27T04:32:51.973Z,10.97
2019-04-27T04:35:22.937Z,10.53
2019-04-27T04:37:53.483Z,11.50
2019-04-27T04:40:30.822Z,9.57
2019-04-27T04:43:06.824Z,10.60
2019-04-27T04:46:04.990Z,11.80
2019-04-27T04:48:34.777Z,10.77
2019-04-27T04:51:04.391Z,8.73
2019-04-27T04:53:34.207Z,8.67
2019-04-27T04:56:03.854Z,9.20
2019-04-27T04:58:33.411Z,10.67
2019-04-27T05:01:02.992Z,10.57
2019-04-27T05:03:32.656Z,9.43
2019-04-27T05:06:02.192Z,9.80
2019-04-27T05:08:32.041Z,13.27
2019-04-27T05:11:01.580Z,9.53
2019-04-27T05:13:31.460Z,9.27
2019-04-27T05:16:01.018Z,9.07
2019-04-27T05:18:30.565Z,8.67
2019-04-27T05:21:15.556Z,9.13
2019-04-27T05:23:45.141Z,8.53
2019-04-27T05:26:14.709Z,11.00
2019-04-27T05:28:44.427Z,9.53
2019-04-27T05:31:13.973Z,11.07
2019-04-27T05:33:43.819Z,7.83
2019-04-27T05:36:13.648Z,9.50
2019-04-27T05:38:45.978Z,9.20
2019-04-27T05:41:14.745Z,6.43
2019-04-27T05:44:07.482Z,7.70
2019-04-27T05:46:52.180Z,6.90
2019-04-27T05:49:36.408Z,9.03
2019-04-27T05:52:26.097Z,8.00
2019-04-27T05:54:56.433Z,6.73
2019-04-27T05:57:26.333Z,5.27
2019-04-27T05:59:56.125Z,6.97
2019-04-27T06:02:29.987Z,7.17
2019-04-27T06:05:00.240Z,7.40
2019-04-27T06:07:29.970Z,6.30
2019-04-27T06:10:00.035Z,8.17
2019-04-27T06:12:29.982Z,5.87
2019-04-27T06:15:00.226Z,6.37
2019-04-27T06:17:30.328Z,7.57
2019-04-27T06:19:59.947Z,7.23
2019-04-27T06:22:29.631Z,7.93
2019-04-27T06:25:00.033Z,7.07
2019-04-27T06:27:30.944Z,5.80
2019-04-27T06:30:01.024Z,5.17
2019-04-27T06:32:30.973Z,4.73
2019-04-27T06:35:00.532Z,7.67
2019-04-27T06:37:30.179Z,6.67
2019-04-27T06:39:59.992Z,7.53
2019-04-27T06:42:29.907Z,5.30
2019-04-27T06:45:00.052Z,5.20
2019-04-27T06:47:29.891Z,5.13
2019-04-27T06:49:59.460Z,8.00
2019-04-27T06:52:29.368Z,6.40
2019-04-27T06:55:00.630Z,6.00
2019-04-27T06:57:30.888Z,8.33
2019-04-27T07:00:00.437Z,7.37
2019-04-27T07:02:30.190Z,6.23
2019-04-27T07:05:00.429Z,5.23
2019-04-27T07:07:30.018Z,7.37
2019-04-27T07:09:59.827Z,5.53
2019-04-27T07:12:29.525Z,5.70
2019-04-27T07:14:59.302Z,4.87
2019-04-27T07:17:29.487Z,5.50
2019-04-27T07:19:59.581Z,7.00
2019-04-27T07:22:30.006Z,4.93
2019-04-27T07:24:59.945Z,8.27
2019-04-27T07:27:29.490Z,6.83
2019-04-27T07:30:01.577Z,3.60
2019-04-27T07:32:30.413Z,6.37
2019-04-27T07:34:59.969Z,4.37
2019-04-27T07:37:29.574Z,6.97
2019-04-27T07:39:59.345Z,5.97
2019-04-27T07:42:30.272Z,6.60
2019-04-27T07:45:09.354Z,4.70
2019-04-27T07:47:42.026Z,5.20
2019-04-27T07:50:12.249Z,4.37
2019-04-27T07:52:42.316Z,5.07
2019-04-27T07:55:11.944Z,4.33
2019-04-27T07:57:41.516Z,5.27
2019-04-27T08:00:12.857Z,3.20
2019-04-27T08:02:43.078Z,3.50
2019-04-27T08:05:13.402Z,4.60
2019-04-27T08:07:43.519Z,3.70
2019-04-27T08:10:20.717Z,3.50
2019-04-27T08:12:50.509Z,3.13
2019-04-27T08:15:20.049Z,4.63
2019-04-27T08:17:49.709Z,4.47
2019-04-27T08:20:21.150Z,3.07
2019-04-27T08:22:50.499Z,2.97
2019-04-27T08:25:21.736Z,2.07
2019-04-27T08:28:14.984Z,2.60
2019-04-27T08:30:51.480Z,4.43
2019-04-27T08:33:21.324Z,1.77
2019-04-27T08:35:51.168Z,2.07
2019-04-27T08:38:20.755Z,1.60
2019-04-27T08:40:50.370Z,4.07
2019-04-27T08:43:19.993Z,2.83
2019-04-27T08:45:50.789Z,6.70
2019-04-27T08:48:33.473Z,7.67
2019-04-27T08:50:55.265Z,3.17
2019-04-27T08:53:26.041Z,3.30
2019-04-27T08:56:02.678Z,4.23
2019-04-27T08:58:32.348Z,2.77
2019-04-27T09:01:01.975Z,5.37
2019-04-27T09:03:39.576Z,4.30
2019-04-27T09:06:10.605Z,4.30
2019-04-27T09:09:05.285Z,4.33
2019-04-27T09:11:56.760Z,5.97
2019-04-27T09:14:40.787Z,4.30
2019-04-27T09:17:33.249Z,4.00
2019-04-27T09:20:22.781Z,7.47
2019-04-27T09:22:52.597Z,4.97
2019-04-27T09:25:22.534Z,4.57
2019-04-27T09:27:52.083Z,3.80
2019-04-27T09:30:22.028Z,3.13
2019-04-27T09:32:57.468Z,6.77
2019-04-27T09:35:27.696Z,4.00
2019-04-27T09:37:57.613Z,4.40
2019-04-27T09:40:27.208Z,3.57
2019-04-27T09:42:57.174Z,3.23
2019-04-27T09:45:27.252Z,3.00
2019-04-27T09:47:56.809Z,3.43
2019-04-27T09:50:28.287Z,3.20
2019-04-27T09:52:57.956Z,3.70
2019-04-27T09:55:27.928Z,3.60
2019-04-27T09:57:57.566Z,3.47
2019-04-27T10:00:27.790Z,4.20
2019-04-27T10:02:57.486Z,3.17
2019-04-27T10:05:27.028Z,4.67
2019-04-27T10:07:57.027Z,2.97
2019-04-27T10:10:30.872Z,4.73
2019-04-27T10:13:00.437Z,4.03
2019-04-27T10:15:30.003Z,4.73
2019-04-27T10:17:59.804Z,3.83
2019-04-27T10:20:29.377Z,3.03
2019-04-27T10:22:59.164Z,4.13
2019-04-27T10:25:30.061Z,3.47
2019-04-27T10:27:59.603Z,3.67
2019-04-27T10:30:30.044Z,2.33
2019-04-27T10:33:01.621Z,2.13
2019-04-27T10:35:31.560Z,3.20
2019-04-27T10:38:01.473Z,2.20
2019-04-27T10:41:10.303Z,3.23
2019-04-27T10:43:39.880Z,5.13
2019-04-27T10:46:09.457Z,2.13
2019-04-27T10:48:39.628Z,2.87
2019-04-27T10:51:09.550Z,2.90
2019-04-27T10:53:39.348Z,2.57
2019-04-27T10:56:08.908Z,2.53
2019-04-27T10:58:38.466Z,2.57
2019-04-27T11:01:08.891Z,4.00
2019-04-27T11:03:57.481Z,2.00
2019-04-27T11:06:36.601Z,3.20
2019-04-27T11:09:09.145Z,5.37
2019-04-27T11:11:39.465Z,3.53
2019-04-27T11:14:09.148Z,2.67
2019-04-27T11:16:38.800Z,3.57
2019-04-27T11:19:08.513Z,3.13
2019-04-27T11:21:38.044Z,4.17
2019-04-27T11:24:08.005Z,3.93
2019-04-27T11:26:37.817Z,7.37
2019-04-27T11:29:07.553Z,2.87
2019-04-27T11:31:37.772Z,2.00
2019-04-27T11:34:08.173Z,4.13
2019-04-27T11:37:09.725Z,3.47
2019-04-27T11:39:39.956Z,3.67
2019-04-27T11:42:14.056Z,4.28
2019-04-27T11:45:00.760Z,3.30
2019-04-27T11:47:30.341Z,2.17
2019-04-27T11:50:00.698Z,2.70
2019-04-27T11:52:32.248Z,4.13
2019-04-27T11:55:02.255Z,5.60
2019-04-27T11:57:31.904Z,2.77
2019-04-27T12:00:01.464Z,2.77
2019-04-27T12:02:31.285Z,3.47
2019-04-27T12:05:08.007Z,3.27
2019-04-27T12:07:37.740Z,2.27
2019-04-27T12:10:08.195Z,4.17
2019-04-27T12:12:38.005Z,3.90
2019-04-27T12:15:08.795Z,5.27
2019-04-27T12:17:38.361Z,3.00
2019-04-27T12:20:08.299Z,2.83
2019-04-27T12:22:37.852Z,4.43
2019-04-27T12:25:08.321Z,2.97
2019-04-27T12:27:47.217Z,2.90
2019-04-27T12:30:37.108Z,2.63
2019-04-27T12:33:06.825Z,2.17
2019-04-27T12:35:36.885Z,3.23
2019-04-27T12:38:06.720Z,1.73
2019-04-27T12:40:36.756Z,2.60
2019-04-27T12:43:06.531Z,2.40
2019-04-27T12:45:40.293Z,1.97
2019-04-27T12:48:08.422Z,2.03
2019-04-27T12:50:38.392Z,1.33
2019-04-27T12:53:11.277Z,3.77
2019-04-27T12:55:52.412Z,2.50
2019-04-27T12:58:36.866Z,1.20
2019-04-27T13:01:09.700Z,3.93
2019-04-27T13:03:39.581Z,2.33
2019-04-27T13:06:09.225Z,3.23
2019-04-27T13:08:39.453Z,3.17
2019-04-27T13:11:09.406Z,1.70
2019-04-27T13:13:38.984Z,3.27
2019-04-27T13:16:08.716Z,2.97
2019-04-27T13:18:38.361Z,3.53
2019-04-27T13:21:08.065Z,1.67
2019-04-27T13:23:37.704Z,2.17
2019-04-27T13:26:07.504Z,2.97
2019-04-27T13:28:37.064Z,1.50
2019-04-27T13:31:06.822Z,1.43
2019-04-27T13:33:36.585Z,1.13
2019-04-27T13:36:07.606Z,2.70
2019-04-27T13:38:37.236Z,1.07
2019-04-27T13:41:08.233Z,0.83
2019-04-27T13:43:38.837Z,1.93
2019-04-27T13:46:19.185Z,0.80
2019-04-27T13:49:03.930Z,2.57
2019-04-27T13:51:45.065Z,2.87
2019-04-27T13:54:23.821Z,0.63
2019-04-27T13:56:47.618Z,1.20
2019-04-27T13:59:17.401Z,8.67
2019-04-27T14:01:46.968Z,4.60
2019-04-27T14:04:16.516Z,1.20
2019-04-27T14:06:46.545Z,0.60
2019-04-27T14:09:16.172Z,3.57
2019-04-27T14:11:46.132Z,2.63
2019-04-27T14:14:15.689Z,0.57
2019-04-27T14:16:54.689Z,0.67
2019-04-27T14:19:24.510Z,2.20
2019-04-27T14:21:54.419Z,1.83
2019-04-27T14:24:38.664Z,1.23
2019-04-27T14:27:09.291Z,2.40
2019-04-27T14:29:39.485Z,3.63
2019-04-27T14:32:09.360Z,1.80
2019-04-27T14:34:39.364Z,3.27
2019-04-27T14:37:18.626Z,2.47
2019-04-27T14:39:54.272Z,0.83
2019-04-27T14:42:24.269Z,0.50
2019-04-27T14:44:53.920Z,0.70
2019-04-27T14:47:23.828Z,1.20
2019-04-27T14:49:53.953Z,1.73
2019-04-27T14:52:23.513Z,0.73
2019-04-27T14:54:53.383Z,0.87
2019-04-27T14:57:23.216Z,0.97
2019-04-27T14:59:53.077Z,0.40
2019-04-27T15:02:22.708Z,0.50
2019-04-27T15:04:52.290Z,0.83
2019-04-27T15:07:22.112Z,0.30
2019-04-27T15:09:54.449Z,1.40
2019-04-27T15:12:30.765Z,0.30
2019-04-27T15:14:58.814Z,1.20
2019-04-27T15:17:29.591Z,0.73
2019-04-27T15:20:04.084Z,2.27
2019-04-27T15:22:33.992Z,0.77
2019-04-27T15:25:12.353Z,1.13
2019-04-27T15:27:42.364Z,4.00
2019-04-27T15:30:19.392Z,1.40
2019-04-27T15:33:16.212Z,0.90
2019-04-27T15:35:50.845Z,2.60
2019-04-27T15:38:24.205Z,1.60
2019-04-27T15:41:15.956Z,2.63
2019-04-27T15:43:46.422Z,1.87
2019-04-27T15:46:18.341Z,2.33
2019-04-27T15:48:48.725Z,2.70
2019-04-27T15:51:24.276Z,2.25
2019-04-27T15:53:54.152Z,2.07
2019-04-27T15:56:23.784Z,1.20
2019-04-27T15:58:55.712Z,1.10
2019-04-27T16:01:24.814Z,1.40
2019-04-27T16:03:55.129Z,2.53
2019-04-27T16:06:25.463Z,1.73
2019-04-27T16:09:01.213Z,3.20
2019-04-27T16:11:31.129Z,1.77
2019-04-27T16:14:03.009Z,1.07
2019-04-27T16:16:33.559Z,2.97
2019-04-27T16:19:03.471Z,1.30
2019-04-27T16:21:39.803Z,2.81
2019-04-27T16:24:12.571Z,1.13
2019-04-27T16:26:41.885Z,1.77
2019-04-27T16:29:11.602Z,1.03
2019-04-27T16:31:41.512Z,1.70
2019-04-27T16:34:15.854Z,1.93
2019-04-27T16:36:45.660Z,1.50
2019-04-27T16:39:21.633Z,2.20
2019-04-27T16:41:51.195Z,2.13
2019-04-27T16:44:23.040Z,2.50
2019-04-27T16:46:54.592Z,2.97
2019-04-27T16:49:38.150Z,1.90
2019-04-27T16:52:11.636Z,3.53
2019-04-27T16:54:39.602Z,5.17
2019-04-27T16:57:10.422Z,3.43
2019-04-27T16:59:46.023Z,3.07
2019-04-27T17:02:12.526Z,3.83
2019-04-27T17:04:45.140Z,3.20
2019-04-27T17:07:13.468Z,3.40
2019-04-27T17:09:46.223Z,2.33
2019-04-27T17:12:14.624Z,5.03
2019-04-27T17:15:12.405Z,1.87
2019-04-27T17:17:59.473Z,1.80
2019-04-27T17:20:29.929Z,1.87
2019-04-27T17:22:59.704Z,2.20
2019-04-27T17:25:38.924Z,2.60
2019-04-27T17:28:05.490Z,3.47
2019-04-27T17:30:39.851Z,2.80
2019-04-27T17:33:25.178Z,4.07
2019-04-27T17:35:55.145Z,2.50
2019-04-27T17:38:25.036Z,4.23
2019-04-27T17:40:54.973Z,1.70
2019-04-27T17:43:24.845Z,4.03
2019-04-27T17:45:54.630Z,2.90
2019-04-27T17:48:24.237Z,1.93
2019-04-27T17:51:10.189Z,2.43
2019-04-27T17:53:41.647Z,3.27
2019-04-27T17:56:11.213Z,4.43
2019-04-27T17:58:40.987Z,3.37
2019-04-27T18:01:13.908Z,2.40
2019-04-27T18:03:44.068Z,2.07
2019-04-27T18:06:13.936Z,1.40
2019-04-27T18:08:43.804Z,5.77
2019-04-27T18:11:13.367Z,2.10
2019-04-27T18:13:42.912Z,1.53
2019-04-27T18:16:12.533Z,1.60
2019-04-27T18:19:07.828Z,1.90
2019-04-27T18:21:42.684Z,1.60
2019-04-27T18:24:18.528Z,5.67
2019-04-27T18:27:08.860Z,2.40
2019-04-27T18:29:38.767Z,1.47
2019-04-27T18:32:08.885Z,1.30
2019-04-27T18:34:38.930Z,1.30
2019-04-27T18:37:08.592Z,2.43
2019-04-27T18:39:40.717Z,0.60
2019-04-27T18:42:10.050Z,1.00
2019-04-27T18:44:39.613Z,1.77
2019-04-27T18:47:09.160Z,2.37
2019-04-27T18:50:07.334Z,4.57
2019-04-27T18:52:47.682Z,2.17
2019-04-27T18:55:18.532Z,3.13
2019-04-27T18:57:51.106Z,5.27
2019-04-27T19:00:20.526Z,3.43
2019-04-27T19:02:50.486Z,3.30
2019-04-27T19:05:20.552Z,10.30
2019-04-27T19:07:50.485Z,4.90
2019-04-27T19:10:20.321Z,9.17
2019-04-27T19:12:50.318Z,1.73
2019-04-27T19:15:20.010Z,3.87
2019-04-27T19:17:49.580Z,3.23
2019-04-27T19:20:19.521Z,2.60
2019-04-27T19:22:49.333Z,3.37
2019-04-27T19:25:36.213Z,3.63
2019-04-27T19:28:18.730Z,2.50
2019-04-27T19:30:52.800Z,3.60
2019-04-27T19:33:22.670Z,3.23
2019-04-27T19:35:52.324Z,1.63
2019-04-27T19:38:21.960Z,3.43
2019-04-27T19:40:51.797Z,3.27
2019-04-27T19:43:21.467Z,1.60
2019-04-27T19:45:51.343Z,1.83
2019-04-27T19:48:21.024Z,1.47
2019-04-27T19:50:50.836Z,2.37
2019-04-27T19:53:20.721Z,3.33
2019-04-27T19:56:01.537Z,1.83
2019-04-27T19:58:35.589Z,2.20
2019-04-27T20:01:11.950Z,2.73
2019-04-27T20:03:47.130Z,2.73
2019-04-27T20:06:18.282Z,3.63
2019-04-27T20:08:50.372Z,2.57
2019-04-27T20:11:20.012Z,2.27
2019-04-27T20:13:50.590Z,3.00
2019-04-27T20:16:21.150Z,2.80
2019-04-27T20:18:51.660Z,3.33
2019-04-27T20:21:27.409Z,1.50
2019-04-27T20:23:56.969Z,2.07
2019-04-27T20:26:26.544Z,1.92
2019-04-27T20:28:56.084Z,1.83
2019-04-27T20:31:25.664Z,2.83
2019-04-27T20:33:55.253Z,1.60
2019-04-27T20:36:25.117Z,2.67
2019-04-27T20:38:54.708Z,3.17
2019-04-27T20:41:24.686Z,6.03
2019-04-27T20:43:54.330Z,0.93
2019-04-27T20:46:24.029Z,1.07
2019-04-27T20:48:55.316Z,2.33
2019-04-27T20:51:54.286Z,2.57
2019-04-27T20:54:24.115Z,2.23
2019-04-27T20:56:56.923Z,1.87
2019-04-27T20:59:25.188Z,2.50
2019-04-27T21:01:54.986Z,4.40
2019-04-27T21:04:28.409Z,3.60
2019-04-27T21:07:04.370Z,3.33
2019-04-27T21:09:33.932Z,2.93
2019-04-27T21:12:03.476Z,4.33
2019-04-27T21:14:33.102Z,2.90
2019-04-27T21:17:02.674Z,3.07
2019-04-27T21:19:32.200Z,5.43
2019-04-27T21:22:01.822Z,3.93
2019-04-27T21:24:31.398Z,6.87
2019-04-27T21:27:01.076Z,6.70
2019-04-27T21:29:31.173Z,5.67
2019-04-27T21:32:01.109Z,5.13
2019-04-27T21:34:31.168Z,5.97
2019-04-27T21:37:01.177Z,6.57
2019-04-27T21:39:31.871Z,4.63
2019-04-27T21:42:01.641Z,5.67
2019-04-27T21:44:32.013Z,3.67
2019-04-27T21:47:01.922Z,4.90
2019-04-27T21:49:31.832Z,2.13
2019-04-27T21:52:04.488Z,3.83
2019-04-27T21:54:35.067Z,2.93
2019-04-27T21:57:04.760Z,4.93
2019-04-27T21:59:34.319Z,4.77
2019-04-27T22:02:06.255Z,4.13
2019-04-27T22:04:35.833Z,3.87
2019-04-27T22:07:05.832Z,4.60
2019-04-27T22:09:35.576Z,4.21
2019-04-27T22:12:05.720Z,3.40
2019-04-27T22:14:36.705Z,3.90
2019-04-27T22:17:06.492Z,2.57
2019-04-27T22:19:36.213Z,3.10
2019-04-27T22:22:10.647Z,2.03
2019-04-27T22:24:42.752Z,3.93
2019-04-27T22:27:12.517Z,4.10
2019-04-27T22:29:42.325Z,2.00
2019-04-27T22:32:14.935Z,4.39
2019-04-27T22:34:44.812Z,1.93
2019-04-27T22:37:15.795Z,3.07
2019-04-27T22:39:52.791Z,2.80
2019-04-27T22:42:48.824Z,5.83
2019-04-27T22:45:25.533Z,5.83
2019-04-27T22:47:55.168Z,2.57
2019-04-27T22:50:27.734Z,5.43
2019-04-27T22:52:57.577Z,3.23
2019-04-27T22:55:27.189Z,2.63
2019-04-27T22:58:03.076Z,4.50
2019-04-27T23:00:51.277Z,5.33
2019-04-27T23:03:24.861Z,3.73
2019-04-27T23:05:54.841Z,4.87
2019-04-27T23:08:24.464Z,4.43
2019-04-27T23:10:54.104Z,5.13
2019-04-27T23:13:24.021Z,4.53
2019-04-27T23:15:55.492Z,7.30
2019-04-27T23:18:25.181Z,6.10
2019-04-27T23:20:55.097Z,3.27
2019-04-27T23:23:26.892Z,5.60
2019-04-27T23:25:56.687Z,4.70
2019-04-27T23:28:26.737Z,7.27
2019-04-27T23:31:02.876Z,5.53
2019-04-27T23:33:32.435Z,4.83
2019-04-27T23:36:03.572Z,6.37
2019-04-27T23:38:33.473Z,2.47
2019-04-27T23:41:03.355Z,6.53
2019-04-27T23:43:32.926Z,6.93
2019-04-27T23:46:02.772Z,8.03
2019-04-27T23:48:32.605Z,7.77
2019-04-27T23:51:15.502Z,5.53
2019-04-27T23:53:45.103Z,6.80
2019-04-27T23:56:14.997Z,6.97
2019-04-27T23:58:44.837Z,8.33
